Howard, KY

02:38 PM EST am 03. Dezember 2016 (GMT -0500)
Godman Army Air Field | | Change Station

Höhe 755 ft 37.91 °N, 85.97 °W | Updated 40 minutes ago

Overcast
Bedeckt
43 °F
gefühlte 40 °F
N
5
Wind Wechselnd Wind aus Nord

Heute
Max. -- | schwach -- °F
--% Regenrisiko
Gestern
Max. -- | schwach -- °F
Precip. -- inch
Druck 30.33 inch
Sichtweite 10.0 Meilen
Wolken Wolkig 3600 ft
Bedeckt 6000 ft
Windchill 40 °F
Taupunkt 28 °F
Feuchtigkeit 56%
Regen 0.00 inch
Schneehöhe Nicht verfügbar..
7:43 AM 5:24 PM
Erstes Viertel, 16% visible
METAR KFTK 031858Z 01004KT 10SM BKN036 OVC060 06/M02 A3031 RMK AO2A SLP271 T00601023
Druck 30.33 inch
Sichtweite 10.0 Meilen
Wolken Wolkig 3600 ft
Bedeckt 6000 ft
Windchill 40 °F
Taupunkt 28 °F
Feuchtigkeit 56%
Regen 0.00 inch
Schneehöhe Nicht verfügbar..
7:43 AM 5:24 PM
Erstes Viertel, 16% visible
METAR KFTK 031858Z 01004KT 10SM BKN036 OVC060 06/M02 A3031 RMK AO2A SLP271 T00601023

10-Day Weather Forecast

Almanac

Astronomie

Dec. 03, 2016 Aufgang Untergang
Genaue Zeit
Bürgerliche Dämmerung
Nautische Dämmerung
Astronomische Dämmerung
Mond
Länge des sichtbaren Lichts
Tageslänge
Tomorrow will be .
, % of the Moon is Illuminated

Heutige Rekorde

State Highs State Lows

Community

WunderPhotos

Upload Photos

1,955,475 Fotos hochgeladen!

WunderBlog® & News

Nearby

Luftqualität

  Luftqualität LQ Index Schadstoff
Not available.

Schneehöhe

Station Depth Höhe

Erdbebenaktivität

Stadt Distance Mag. Time & Date
Minimum magnitude displayed is 2.5.

küstennahe Wassertemperaturen

Ort Temperatur

Stations

Wetterstationen in der Umgebung

Stationsstandort Temp. Windchill Taupunkt Feuchtigkeit Wind Precip. Höhe Aktualisiert Art
                   

Watches & Warnings

There are currently no watches in effect.